createdAt,value
2023-01-31T00:04:00.671Z,20.15
2023-01-31T00:09:05.080Z,20.13
2023-01-31T00:14:10.543Z,19.87
2023-01-31T00:19:12.860Z,20.43
2023-01-31T00:24:15.586Z,18.63
2023-01-31T00:29:17.778Z,18.27
2023-01-31T00:34:20.580Z,17.73
2023-01-31T00:39:22.882Z,17.20
2023-01-31T00:44:25.308Z,18.57
2023-01-31T00:49:27.781Z,17.17
2023-01-31T00:54:30.053Z,18.52
2023-01-31T00:59:32.303Z,18.17
2023-01-31T01:04:35.501Z,17.52
2023-01-31T01:09:37.770Z,16.80
2023-01-31T01:14:40.056Z,16.53
2023-01-31T01:19:42.313Z,18.07
2023-01-31T01:24:45.756Z,18.77
2023-01-31T01:29:47.974Z,17.50
2023-01-31T01:34:50.197Z,17.27
2023-01-31T01:39:53.171Z,16.73
2023-01-31T01:44:59.706Z,17.17
2023-01-31T02:00:31.082Z,18.10
2023-01-31T02:05:41.718Z,16.40
2023-01-31T02:16:03.483Z,16.85
2023-01-31T02:26:56.151Z,16.77
2023-01-31T02:32:22.850Z,15.25
2023-01-31T02:43:01.498Z,15.40
2023-01-31T02:48:33.628Z,16.03
2023-01-31T02:53:42.728Z,15.97
2023-01-31T02:59:07.531Z,15.67
2023-01-31T03:04:13.292Z,15.90
2023-01-31T03:09:36.864Z,18.43
2023-01-31T03:25:05.576Z,17.20
2023-01-31T03:30:13.835Z,16.77
2023-01-31T03:35:16.803Z,17.87
2023-01-31T03:40:27.737Z,17.53
2023-01-31T03:50:51.821Z,19.80
2023-01-31T04:01:08.266Z,21.27
2023-01-31T04:06:12.291Z,21.40
2023-01-31T04:11:16.302Z,21.63
2023-01-31T07:28:05.011Z,34.17
2023-01-31T07:33:07.378Z,34.75
2023-01-31T07:38:11.134Z,34.33
2023-01-31T09:34:23.045Z,18.65
2023-01-31T09:39:25.957Z,17.92
2023-01-31T09:44:42.515Z,19.67
2023-01-31T09:49:52.268Z,19.97
2023-01-31T09:54:55.190Z,18.00
2023-01-31T10:15:51.011Z,19.23
2023-01-31T10:21:04.231Z,17.67
2023-01-31T10:26:14.833Z,17.63
2023-01-31T10:36:43.012Z,18.58
2023-01-31T10:42:18.386Z,18.45
2023-01-31T10:47:33.650Z,17.33
2023-01-31T10:57:54.443Z,17.63
2023-01-31T11:02:58.757Z,18.30
2023-01-31T11:08:19.347Z,18.67
2023-01-31T11:13:22.634Z,17.55
2023-01-31T11:23:37.681Z,16.60
2023-01-31T11:28:41.589Z,15.57
2023-01-31T11:34:02.129Z,15.20
2023-01-31T11:44:36.590Z,16.90
2023-01-31T11:49:42.821Z,15.00
2023-01-31T11:54:50.419Z,16.00
2023-01-31T11:59:57.388Z,15.32
2023-01-31T12:05:00.818Z,17.77
2023-01-31T12:10:03.037Z,14.80
2023-01-31T12:15:15.644Z,15.98
2023-01-31T12:20:31.240Z,18.33
2023-01-31T12:31:13.554Z,17.13
2023-01-31T13:07:51.033Z,13.18
2023-01-31T13:12:54.582Z,13.63
2023-01-31T13:18:03.599Z,13.32
2023-01-31T16:53:41.649Z,12.52
2023-01-31T17:04:18.630Z,12.77
2023-01-31T17:09:22.495Z,12.32
2023-01-31T17:14:25.149Z,12.50
2023-01-31T17:19:27.489Z,12.75
2023-01-31T17:24:29.747Z,13.05
2023-01-31T17:29:31.936Z,14.65
2023-01-31T17:34:34.742Z,13.00
2023-01-31T17:39:37.182Z,12.02
2023-01-31T17:44:39.412Z,12.90
2023-01-31T17:49:41.634Z,13.10
2023-01-31T17:54:43.862Z,12.65
2023-01-31T17:59:46.079Z,14.13
2023-01-31T18:04:48.401Z,13.88
2023-01-31T18:09:51.062Z,13.80
2023-01-31T18:14:54.011Z,13.68
2023-01-31T18:19:56.369Z,14.20
2023-01-31T18:24:58.633Z,12.98
2023-01-31T18:30:00.822Z,17.33
2023-01-31T18:35:03.134Z,13.88
2023-01-31T18:40:05.946Z,14.02
2023-01-31T18:45:09.299Z,15.90
2023-01-31T18:50:11.733Z,16.42
2023-01-31T18:55:13.951Z,14.45
2023-01-31T19:00:16.649Z,14.90
2023-01-31T19:05:20.128Z,14.75
2023-01-31T19:10:22.605Z,19.25
2023-01-31T19:15:25.424Z,15.63
2023-01-31T19:20:27.977Z,13.40
2023-01-31T19:25:30.376Z,13.80
2023-01-31T19:30:33.259Z,14.00
2023-01-31T19:35:35.559Z,14.52
2023-01-31T19:40:38.237Z,15.93
2023-01-31T19:45:41.133Z,13.60
2023-01-31T19:50:43.441Z,13.95
2023-01-31T19:55:48.498Z,15.30
2023-01-31T20:00:53.070Z,15.93
2023-01-31T20:06:00.440Z,14.68
2023-01-31T20:11:03.601Z,14.10
2023-01-31T20:16:08.967Z,14.55
2023-01-31T20:21:15.905Z,15.05
2023-01-31T20:26:19.403Z,15.60
2023-01-31T20:31:22.736Z,15.35
2023-01-31T20:36:25.046Z,15.05
2023-01-31T20:41:27.353Z,15.07
2023-01-31T20:46:29.785Z,14.30
2023-01-31T20:51:32.115Z,13.68
2023-01-31T20:56:34.344Z,12.73
2023-01-31T21:01:36.981Z,12.68
2023-01-31T21:06:39.304Z,16.20
2023-01-31T21:11:41.569Z,18.40
2023-01-31T21:16:44.042Z,16.55
2023-01-31T21:21:46.255Z,15.82
2023-01-31T21:26:48.539Z,13.93
2023-01-31T21:31:50.922Z,19.35
2023-01-31T21:36:53.903Z,14.40
2023-01-31T21:42:16.014Z,13.32
2023-01-31T21:47:18.335Z,13.52
2023-01-31T21:52:20.664Z,12.95
2023-01-31T21:57:22.935Z,13.45
2023-01-31T22:02:25.173Z,12.60
2023-01-31T22:07:27.509Z,12.63
2023-01-31T22:12:30.095Z,11.90
2023-01-31T22:17:32.358Z,12.27
2023-01-31T22:22:34.619Z,11.77
2023-01-31T22:27:36.899Z,12.30
2023-01-31T22:32:39.082Z,12.10
2023-01-31T22:37:41.545Z,12.02
2023-01-31T22:42:43.760Z,11.88
2023-01-31T22:47:45.947Z,11.90
2023-01-31T22:52:48.675Z,11.82
2023-01-31T22:57:50.891Z,13.65
2023-01-31T23:02:53.052Z,13.43
2023-01-31T23:07:56.665Z,13.20
2023-01-31T23:12:58.957Z,12.95
2023-01-31T23:18:01.703Z,13.25
2023-01-31T23:23:03.905Z,12.80
2023-01-31T23:28:06.730Z,12.52
2023-01-31T23:33:08.897Z,13.30
2023-01-31T23:38:11.101Z,13.88
2023-01-31T23:43:13.287Z,13.40
2023-01-31T23:48:15.991Z,13.45
2023-01-31T23:53:18.231Z,12.98
2023-01-31T23:58:20.462Z,13.32
